| time (UTC) | temp C | wind direction | speed KPH | gust KPH | rain 1hr cm | rain 24hr cm | rain mn cm | humidity % | barometer mb |
| 20260502170236 | 22 | 348 | 3.2 | 6.4 | 0.00 | 1.75 | 0.00 | 64 | 1015.4 |
| 20260502164235 | 21 | 317 | 3.2 | 4.8 | 0.00 | 1.80 | 0.00 | 60 | 1015.4 |
| 20260502163736 | 21 | 75 | 3.2 | 4.8 | 0.00 | 1.83 | 0.00 | 62 | 1015.4 |
| 20260502163237 | 21 | 92 | 3.2 | 6.4 | 0.00 | 1.88 | 0.00 | 60 | 1015.5 |
| 20260502162236 | 21 | 348 | 3.2 | 6.4 | 0.00 | 1.93 | 0.00 | 63 | 1015.5 |
| 20260502161736 | 21 | 0 | 1.6 | 6.4 | 0.00 | 1.98 | 0.00 | 67 | 1015.4 |
| 20260502161222 | 21 | 280 | 1.6 | 4.8 | 0.00 | 2.08 | 0.00 | 70 | 1015.4 |
| 20260502160709 | 20 | 79 | 1.6 | 6.4 | 0.00 | 2.11 | 0.00 | 72 | 1015.4 |
| 20260502160207 | 20 | 49 | 1.6 | 6.4 | 0.00 | 2.16 | 0.00 | 71 | 1015.3 |
| 20260502152206 | 18 | 302 | 3.2 | 6.4 | 0.00 | 2.34 | 0.00 | 77 | 1015.3 |
| 20260502151707 | 18 | 97 | 3.2 | 6.4 | 0.00 | 2.34 | 0.00 | 78 | 1015.2 |
| 20260502151206 | 18 | 51 | 3.2 | 6.4 | 0.00 | 2.34 | 0.00 | 80 | 1015.3 |
| 20260502150708 | 18 | 219 | 3.2 | 6.4 | 0.00 | 2.34 | 0.00 | 80 | 1015.2 |
| 20260502150153 | 17 | 91 | 3.2 | 8.0 | 0.00 | 2.34 | 0.00 | 82 | 1015.2 |
| 20260502140123 | 13 | 43 | 3.2 | 6.4 | 0.00 | 2.79 | 0.00 | 94 | 1014.9 |
| 20260502130608 | 11 | 98 | 1.6 | 3.2 | 0.00 | 3.20 | 0.00 | 99 | 1014.2 |
| 20260502130110 | 11 | 316 | 1.6 | 3.2 | 0.00 | 3.25 | 0.00 | 99 | 1014.1 |
| 20260502123554 | 11 | 90 | 3.2 | 9.7 | 0.00 | 3.48 | 0.00 | 99 | 1013.7 |
| 20260502123055 | 11 | 93 | 4.8 | 12.9 | 0.00 | 3.51 | 0.00 | 99 | 1013.7 |
| 20260502122539 | 11 | 101 | 6.4 | 12.9 | 0.00 | 3.66 | 0.00 | 99 | 1013.5 |
| 20260502122041 | 11 | 116 | 6.4 | 11.3 | 0.00 | 3.68 | 0.00 | 99 | 1013.5 |
| 20260502121540 | 10 | 116 | 4.8 | 12.9 | 0.00 | 3.71 | 0.00 | 99 | 1013.5 |
| 20260502121040 | 10 | 95 | 6.4 | 12.9 | 0.00 | 3.73 | 0.00 | 99 | 1013.4 |
| 20260502120540 | 10 | 118 | 4.8 | 11.3 | 0.00 | 3.73 | 0.00 | 99 | 1013.4 |
| 20260502115535 | 10 | 100 | 6.4 | 11.3 | 0.00 | 3.78 | 0.00 | 99 | 1013.2 |
| 20260502115028 | 10 | 110 | 4.8 | 11.3 | 0.00 | 3.91 | 0.00 | 99 | 1013.1 |
| 20260502114517 | 10 | 129 | 4.8 | 9.7 | 0.00 | 4.14 | 0.00 | 99 | 1013.0 |
| 20260502114017 | 10 | 310 | 4.8 | 9.7 | 0.00 | 4.32 | 0.00 | 99 | 1013.0 |
| 20260502113516 | 10 | 118 | 4.8 | 9.7 | 0.00 | 4.39 | 0.00 | 99 | 1013.0 |
| 20260502113017 | 10 | 0 | 4.8 | 9.7 | 0.00 | 4.45 | 0.00 | 99 | 1012.9 |
| 20260502112510 | 10 | 124 | 6.4 | 9.7 | 0.00 | 4.47 | 0.00 | 99 | 1012.9 |
| 20260502112012 | 11 | 125 | 6.4 | 9.7 | 0.00 | 4.57 | 0.00 | 99 | 1012.8 |
| 20260502111510 | 11 | 106 | 4.8 | 11.3 | 0.00 | 4.60 | 0.00 | 99 | 1012.8 |
| 20260502111011 | 11 | 117 | 6.4 | 12.9 | 0.00 | 4.60 | 0.00 | 99 | 1012.7 |
| 20260502110509 | 11 | 109 | 6.4 | 12.9 | 0.00 | 4.60 | 0.00 | 99 | 1012.7 |
| 20260502110010 | 11 | 119 | 4.8 | 9.7 | 0.00 | 4.67 | 0.00 | 99 | 1012.7 |
| 20260502105510 | 11 | 117 | 4.8 | 12.9 | 0.00 | 4.75 | 0.00 | 99 | 1012.6 |
| 20260502105010 | 11 | 96 | 6.4 | 12.9 | 0.00 | 4.80 | 0.00 | 99 | 1012.6 |
| 20260502104510 | 11 | 0 | 6.4 | 12.9 | 0.00 | 4.85 | 0.00 | 99 | 1012.6 |
| 20260502104005 | 11 | 121 | 6.4 | 12.9 | 0.00 | 4.85 | 0.00 | 99 | 1012.5 |
| 20260502103505 | 11 | 89 | 6.4 | 12.9 | 0.00 | 4.85 | 0.00 | 99 | 1012.4 |
| 20260502103000 | 11 | 148 | 6.4 | 12.9 | 0.00 | 4.85 | 0.00 | 99 | 1012.4 |
| 20260502102459 | 11 | 101 | 6.4 | 12.9 | 0.00 | 4.85 | 0.00 | 99 | 1012.4 |
| 20260502101955 | 11 | 117 | 6.4 | 11.3 | 0.00 | 4.88 | 0.00 | 99 | 1012.4 |
| 20260502101455 | 11 | 116 | 6.4 | 11.3 | 0.00 | 4.93 | 0.00 | 99 | 1012.2 |
| 20260502100955 | 11 | 120 | 6.4 | 11.3 | 0.00 | 5.28 | 0.00 | 99 | 1012.1 |
| 20260502100448 | 11 | 124 | 6.4 | 11.3 | 0.00 | 5.38 | 0.00 | 99 | 1012.0 |
| 20260502091413 | 11 | 120 | 4.8 | 9.7 | 0.00 | 6.83 | 0.00 | 99 | 1011.2 |
| 20260502090913 | 11 | 126 | 4.8 | 9.7 | 0.00 | 6.86 | 0.00 | 100 | 1011.2 |
| 20260502090413 | 11 | 117 | 4.8 | 9.7 | 0.00 | 6.88 | 0.00 | 99 | 1011.1 |
| 20260502071329 | 12 | 92 | 3.2 | 4.8 | 0.00 | 9.35 | 0.00 | 100 | 1010.9 |
| 20260502070800 | 12 | 101 | 3.2 | 4.8 | 0.00 | 9.35 | 0.00 | 100 | 1011.0 |
| 20260502070259 | 12 | 43 | 3.2 | 6.4 | 0.00 | 9.35 | 0.00 | 100 | 1011.1 |
| 20260502065759 | 12 | 102 | 3.2 | 6.4 | 0.00 | 9.35 | 0.00 | 100 | 1011.1 |
| 20260502065246 | 12 | 91 | 3.2 | 6.4 | 0.00 | 9.35 | 0.00 | 99 | 1011.0 |
| 20260502064744 | 12 | 78 | 3.2 | 9.7 | 0.00 | 9.35 | 0.00 | 99 | 1010.9 |
| 20260502064221 | 12 | 57 | 3.2 | 9.7 | 0.00 | 9.35 | 0.00 | 99 | 1010.8 |
| 20260502063715 | 12 | 323 | 3.2 | 4.8 | 0.00 | 9.35 | 0.00 | 99 | 1010.7 |
| 20260502063213 | 12 | 73 | 3.2 | 4.8 | 0.00 | 9.35 | 0.00 | 99 | 1010.8 |
| 20260502062714 | 12 | 85 | 3.2 | 6.4 | 0.00 | 9.35 | 0.00 | 99 | 1010.7 |
| 20260502062214 | 12 | 93 | 3.2 | 6.4 | 0.00 | 9.35 | 0.00 | 99 | 1010.7 |
| 20260502061714 | 12 | 96 | 3.2 | 4.8 | 0.00 | 9.35 | 0.00 | 99 | 1010.7 |
| 20260502061213 | 12 | 67 | 3.2 | 4.8 | 0.00 | 9.35 | 0.00 | 99 | 1010.6 |
| 20260502060714 | 12 | 93 | 3.2 | 4.8 | 0.00 | 9.35 | 0.00 | 99 | 1010.6 |
| 20260502060215 | 12 | 331 | 3.2 | 4.8 | 0.00 | 9.37 | 0.00 | 99 | 1010.6 |
| 20260502055714 | 12 | 354 | 3.2 | 6.4 | 0.00 | 9.37 | 0.00 | 99 | 1010.7 |
| 20260502055202 | 12 | 80 | 3.2 | 6.4 | 0.00 | 9.37 | 0.00 | 99 | 1010.7 |
| 20260502054701 | 12 | 78 | 3.2 | 4.8 | 0.00 | 9.40 | 0.00 | 99 | 1010.6 |
| 20260502054201 | 12 | 79 | 3.2 | 4.8 | 0.00 | 9.50 | 0.00 | 99 | 1010.6 |
| 20260502053700 | 12 | 59 | 3.2 | 6.4 | 0.00 | 9.68 | 0.00 | 99 | 1010.6 |
| 20260502053146 | 12 | 37 | 3.2 | 6.4 | 0.00 | 9.68 | 0.00 | 99 | 1010.6 |
| 20260502052646 | 12 | 97 | 3.2 | 6.4 | 0.00 | 9.68 | 0.00 | 99 | 1010.6 |
| 20260502052131 | 12 | 115 | 3.2 | 6.4 | 0.00 | 9.70 | 0.00 | 99 | 1010.6 |
| 20260502051631 | 12 | 47 | 3.2 | 6.4 | 0.00 | 9.70 | 0.00 | 99 | 1010.6 |
| 20260502051131 | 12 | 37 | 3.2 | 6.4 | 0.00 | 9.70 | 0.00 | 99 | 1010.5 |
| 20260502050615 | 12 | 42 | 3.2 | 6.4 | 0.00 | 9.70 | 0.00 | 99 | 1010.5 |
| 20260502050115 | 12 | 2 | 3.2 | 14.5 | 0.00 | 9.73 | 0.00 | 99 | 1010.5 |
| 20260502045615 | 12 | 52 | 3.2 | 14.5 | 0.00 | 9.93 | 9.78 | 99 | 1010.5 |
| 20260502045115 | 12 | 61 | 3.2 | 6.4 | 0.00 | 10.13 | 9.78 | 99 | 1010.4 |
| 20260502044615 | 12 | 72 | 3.2 | 6.4 | 0.00 | 10.41 | 9.78 | 99 | 1010.4 |
| 20260502044117 | 12 | 102 | 3.2 | 4.8 | 0.00 | 10.49 | 9.78 | 99 | 1010.4 |
| 20260502043601 | 12 | 352 | 3.2 | 4.8 | 0.00 | 10.49 | 9.78 | 99 | 1010.4 |
| 20260502043101 | 12 | 69 | 3.2 | 6.4 | 0.00 | 10.49 | 9.78 | 99 | 1010.4 |
| 20260502042602 | 12 | 69 | 3.2 | 6.4 | 0.00 | 10.49 | 9.78 | 99 | 1010.3 |
| 20260502042103 | 12 | 347 | 3.2 | 4.8 | 0.00 | 10.49 | 9.78 | 99 | 1010.2 |
| 20260502041548 | 12 | 56 | 3.2 | 6.4 | 0.00 | 10.49 | 9.78 | 99 | 1010.2 |
| 20260502041048 | 12 | 112 | 3.2 | 6.4 | 0.00 | 10.49 | 9.78 | 99 | 1010.3 |
| 20260502040547 | 12 | 103 | 3.2 | 6.4 | 0.00 | 10.49 | 9.78 | 99 | 1010.4 |
| 20260502040034 | 12 | 68 | 3.2 | 8.0 | 0.00 | 10.49 | 9.78 | 99 | 1010.6 |
| 20260502035517 | 12 | 100 | 3.2 | 8.0 | 0.00 | 10.49 | 9.78 | 99 | 1010.6 |
| 20260502035015 | 12 | 88 | 3.2 | 6.4 | 0.00 | 10.49 | 9.78 | 99 | 1010.6 |
| 20260502034502 | 12 | 93 | 3.2 | 6.4 | 0.00 | 10.49 | 9.78 | 99 | 1010.6 |
| 20260502034003 | 12 | 101 | 3.2 | 8.0 | 0.00 | 10.49 | 9.78 | 99 | 1010.5 |
| 20260502033447 | 12 | 69 | 3.2 | 8.0 | 0.00 | 10.49 | 9.78 | 99 | 1010.3 |
| 20260502032932 | 12 | 81 | 3.2 | 6.4 | 0.00 | 10.49 | 9.78 | 99 | 1010.2 |
| 20260502032433 | 12 | 114 | 3.2 | 8.0 | 0.00 | 10.49 | 9.78 | 99 | 1010.2 |
| 20260502031918 | 12 | 65 | 3.2 | 8.0 | 0.00 | 10.49 | 9.78 | 99 | 1010.1 |
| 20260502031418 | 12 | 91 | 3.2 | 6.4 | 0.00 | 10.49 | 9.78 | 99 | 1010.0 |
| 20260502030917 | 12 | 107 | 3.2 | 6.4 | 0.03 | 10.49 | 9.78 | 99 | 1009.9 |
| 20260502030417 | 13 | 82 | 3.2 | 6.4 | 0.05 | 10.49 | 9.78 | 99 | 1009.6 |
| 20260502025917 | 13 | 101 | 3.2 | 6.4 | 0.05 | 10.49 | 9.78 | 99 | 1009.5 |
| 20260502025417 | 13 | 81 | 3.2 | 6.4 | 0.08 | 10.49 | 9.78 | 99 | 1009.5 |
| 20260502024904 | 13 | 89 | 3.2 | 9.7 | 0.08 | 10.49 | 9.78 | 99 | 1009.3 |
| 20260502024354 | 13 | 28 | 3.2 | 9.7 | 0.10 | 10.49 | 9.78 | 99 | 1009.1 |
| 20260502023849 | 13 | 92 | 3.2 | 9.7 | 0.10 | 10.49 | 9.78 | 99 | 1009.0 |
| 20260502023334 | 13 | 60 | 4.8 | 8.0 | 0.10 | 10.49 | 9.78 | 99 | 1008.9 |
| 20260502022833 | 13 | 95 | 3.2 | 8.0 | 0.10 | 10.49 | 9.78 | 99 | 1008.8 |
| 20260502022319 | 13 | 73 | 3.2 | 6.4 | 0.13 | 10.49 | 9.78 | 99 | 1008.9 |
| 20260502021819 | 13 | 95 | 3.2 | 6.4 | 0.18 | 10.49 | 9.78 | 99 | 1009.1 |
| 20260502021319 | 13 | 90 | 3.2 | 6.4 | 0.20 | 10.49 | 9.78 | 99 | 1009.1 |
| 20260502020820 | 13 | 28 | 3.2 | 6.4 | 0.20 | 10.46 | 9.75 | 99 | 1008.5 |
| 20260502020318 | 13 | 41 | 3.2 | 6.4 | 0.23 | 10.46 | 9.73 | 99 | 1008.8 |
| 20260502015820 | 13 | 92 | 3.2 | 6.4 | 0.23 | 10.44 | 9.73 | 99 | 1008.7 |
| 20260502015319 | 13 | 33 | 3.2 | 6.4 | 0.23 | 10.44 | 9.70 | 99 | 1008.8 |
| 20260502014821 | 13 | 320 | 3.2 | 8.0 | 0.23 | 10.41 | 9.70 | 99 | 1008.6 |
| 20260502014319 | 13 | 51 | 3.2 | 8.0 | 0.23 | 10.39 | 9.68 | 99 | 1008.4 |
| 20260502013819 | 14 | 47 | 1.6 | 4.8 | 0.20 | 10.39 | 9.68 | 99 | 1008.8 |
| 20260502013318 | 14 | 11 | 1.6 | 4.8 | 0.23 | 10.39 | 9.68 | 99 | 1008.4 |
| 20260502012820 | 14 | 24 | 1.6 | 6.4 | 0.23 | 10.39 | 9.65 | 99 | 1008.0 |
| 20260502012318 | 14 | 87 | 1.6 | 6.4 | 0.20 | 10.36 | 9.65 | 99 | 1007.9 |
| 20260502011818 | 14 | 71 | 1.6 | 6.4 | 0.15 | 10.31 | 9.60 | 99 | 1007.9 |
| 20260502011318 | 14 | 0 | 1.6 | 6.4 | 0.13 | 10.29 | 9.58 | 99 | 1008.0 |
| 20260502010818 | 14 | 321 | 1.6 | 4.8 | 0.10 | 10.26 | 9.55 | 99 | 1008.0 |
| 20260502010250 | 14 | 323 | 1.6 | 3.2 | 0.08 | 10.21 | 9.50 | 99 | 1008.1 |
| 20260502005749 | 14 | 306 | 3.2 | 3.2 | 0.10 | 10.21 | 9.50 | 99 | 1008.5 |
| 20260502005250 | 14 | 304 | 3.2 | 4.8 | 0.10 | 10.21 | 9.47 | 99 | 1008.5 |
| 20260502004751 | 14 | 12 | 3.2 | 4.8 | 0.13 | 10.21 | 9.47 | 99 | 1007.7 |
| 20260502004250 | 14 | 26 | 3.2 | 6.4 | 0.13 | 10.19 | 9.45 | 99 | 1007.0 |
| 20260502003750 | 14 | 86 | 3.2 | 6.4 | 0.15 | 10.19 | 9.45 | 99 | 1006.6 |
| 20260502003251 | 14 | 339 | 3.2 | 6.4 | 0.15 | 10.16 | 9.45 | 99 | 1006.5 |
| 20260502002735 | 14 | 49 | 3.2 | 8.0 | 0.15 | 10.16 | 9.45 | 99 | 1006.7 |
| 20260502002222 | 14 | 21 | 3.2 | 8.0 | 0.15 | 10.16 | 9.45 | 99 | 1007.1 |
| 20260502001719 | 15 | 83 | 3.2 | 4.8 | 0.15 | 10.16 | 9.45 | 99 | 1007.5 |
| 20260502001153 | 15 | 32 | 3.2 | 4.8 | 0.15 | 10.16 | 9.45 | 99 | 1007.7 |
| 20260502000656 | 15 | 51 | 1.6 | 4.8 | 0.18 | 10.16 | 9.45 | 99 | 1007.3 |
| 20260502000151 | 15 | 33 | 3.2 | 6.4 | 0.25 | 10.13 | 9.42 | 99 | 1007.1 |
| 20260501235652 | 15 | 349 | 3.2 | 9.7 | 0.28 | 10.11 | 9.40 | 99 | 1007.5 |
| 20260501235139 | 15 | 12 | 1.6 | 9.7 | 0.28 | 10.08 | 9.37 | 99 | 1007.8 |
| 20260501234638 | 15 | 323 | 3.2 | 6.4 | 0.28 | 10.06 | 9.35 | 99 | 1007.3 |
| 20260501234122 | 15 | 48 | 1.6 | 6.4 | 0.25 | 10.03 | 9.32 | 99 | 1007.0 |
| 20260501233623 | 15 | 311 | 1.6 | 6.4 | 0.23 | 10.01 | 9.30 | 99 | 1006.6 |
| 20260501233123 | 15 | 87 | 1.6 | 6.4 | 0.23 | 10.01 | 9.30 | 99 | 1006.6 |
| 20260501232623 | 15 | 338 | 1.6 | 4.8 | 0.23 | 10.01 | 9.30 | 99 | 1006.4 |
| 20260501232122 | 15 | 317 | 1.6 | 4.8 | 0.23 | 10.01 | 9.30 | 99 | 1006.2 |
| 20260501231622 | 15 | 310 | 3.2 | 9.7 | 0.23 | 10.01 | 9.30 | 99 | 1005.7 |
| 20260501231122 | 15 | 322 | 3.2 | 9.7 | 0.23 | 10.01 | 9.30 | 99 | 1005.4 |
| 20260501230623 | 15 | 2 | 3.2 | 9.7 | 0.18 | 9.98 | 9.25 | 99 | 1005.9 |
| 20260501230123 | 15 | 65 | 1.6 | 9.7 | 0.05 | 9.86 | 9.12 | 99 | 1006.9 |
| 20260501225622 | 15 | 81 | 1.6 | 6.4 | 0.03 | 9.83 | 9.09 | 99 | 1007.2 |
| 20260501225122 | 15 | 84 | 3.2 | 19.3 | 0.03 | 9.80 | 9.09 | 99 | 1006.6 |
| 20260501224622 | 15 | 302 | 3.2 | 19.3 | 0.00 | 9.78 | 9.07 | 99 | 1005.2 |
| 20260501224122 | 15 | 75 | 3.2 | 6.4 | 0.00 | 9.78 | 9.07 | 99 | 1005.6 |
| 20260501223622 | 15 | 0 | 3.2 | 8.0 | 0.00 | 9.78 | 9.07 | 99 | 1005.1 |
| 20260501223120 | 15 | 316 | 3.2 | 8.0 | 0.00 | 9.78 | 9.07 | 99 | 1004.8 |
| 20260501222622 | 15 | 58 | 3.2 | 8.0 | 0.05 | 9.78 | 9.07 | 99 | 1004.8 |
| 20260501222121 | 15 | 342 | 3.2 | 8.0 | 0.08 | 9.78 | 9.07 | 99 | 1004.8 |
| 20260501221622 | 15 | 263 | 3.2 | 6.4 | 0.08 | 9.78 | 9.07 | 99 | 1004.9 |
| 20260501221121 | 16 | 75 | 3.2 | 6.4 | 0.08 | 9.78 | 9.07 | 99 | 1005.2 |
| 20260501220622 | 16 | 82 | 3.2 | 6.4 | 0.08 | 9.78 | 9.07 | 99 | 1005.4 |
| 20260501220121 | 16 | 8 | 1.6 | 3.2 | 0.08 | 9.78 | 9.07 | 99 | 1005.6 |
| 20260501215622 | 16 | 321 | 1.6 | 4.8 | 0.10 | 9.78 | 9.07 | 99 | 1005.9 |
| 20260501215121 | 16 | 349 | 3.2 | 4.8 | 0.10 | 9.78 | 9.07 | 99 | 1006.1 |
| 20260501214622 | 16 | 91 | 1.6 | 4.8 | 0.10 | 9.78 | 9.07 | 99 | 1006.3 |
| 20260501214107 | 16 | 51 | 1.6 | 4.8 | 0.15 | 9.78 | 9.07 | 99 | 1006.0 |
| 20260501213608 | 16 | 12 | 1.6 | 4.8 | 0.18 | 9.78 | 9.07 | 99 | 1006.5 |
| 20260501213108 | 16 | 50 | 1.6 | 4.8 | 0.20 | 9.78 | 9.07 | 99 | 1006.3 |
| 20260501212608 | 16 | 309 | 1.6 | 4.8 | 0.20 | 9.75 | 9.04 | 99 | 1006.0 |
| 20260501212107 | 16 | 0 | 1.6 | 4.8 | 0.20 | 9.73 | 8.99 | 99 | 1006.0 |
| 20260501211607 | 16 | 0 | 1.6 | 3.2 | 0.28 | 9.73 | 8.99 | 99 | 1005.9 |
| 20260501211107 | 16 | 34 | 1.6 | 3.2 | 0.28 | 9.73 | 8.99 | 99 | 1005.7 |
| 20260501210608 | 16 | 9 | 1.6 | 4.8 | 0.33 | 9.73 | 8.99 | 99 | 1005.1 |
| 20260501210038 | 16 | 313 | 1.6 | 4.8 | 0.33 | 9.70 | 8.99 | 99 | 1004.4 |
| 20260501205538 | 16 | 341 | 1.6 | 4.8 | 0.41 | 9.70 | 8.99 | 99 | 1004.6 |
| 20260501205038 | 16 | 338 | 1.6 | 3.2 | 0.43 | 9.68 | 8.97 | 99 | 1005.1 |
| 20260501204538 | 16 | 0 | 1.6 | 3.2 | 0.43 | 9.68 | 8.97 | 99 | 1005.0 |
| 20260501204024 | 16 | 31 | 1.6 | 3.2 | 0.38 | 9.63 | 8.89 | 99 | 1004.7 |
| 20260501203523 | 16 | 12 | 1.6 | 4.8 | 0.36 | 9.60 | 8.86 | 99 | 1005.8 |
| 20260501203024 | 16 | 307 | 1.6 | 4.8 | 0.33 | 9.58 | 8.84 | 99 | 1005.4 |
| 20260501202524 | 16 | 107 | 1.6 | 4.8 | 0.33 | 9.55 | 8.81 | 99 | 1004.5 |
| 20260501202025 | 16 | 96 | 1.6 | 4.8 | 0.28 | 9.50 | 8.79 | 99 | 1004.7 |
| 20260501201522 | 16 | 95 | 1.6 | 4.8 | 0.23 | 9.45 | 8.74 | 99 | 1004.7 |
| 20260501201023 | 16 | 352 | 1.6 | 4.8 | 0.23 | 9.42 | 8.71 | 99 | 1004.2 |
| 20260501200522 | 16 | 325 | 1.6 | 4.8 | 0.18 | 9.40 | 8.69 | 99 | 1004.3 |
| 20260501200024 | 16 | 312 | 1.6 | 3.2 | 0.15 | 9.37 | 8.66 | 99 | 1004.6 |
| 20260501195522 | 16 | 93 | 1.6 | 3.2 | 0.10 | 9.27 | 8.56 | 99 | 1005.1 |
| 20260501195022 | 16 | 347 | 1.6 | 4.8 | 0.08 | 9.25 | 8.53 | 99 | 1004.7 |
| 20260501194523 | 16 | 324 | 1.6 | 4.8 | 0.08 | 9.22 | 8.51 | 99 | 1004.3 |
| 20260501194023 | 16 | 327 | 1.6 | 3.2 | 0.10 | 9.22 | 8.51 | 99 | 1004.3 |
| 20260501193523 | 16 | 353 | 1.6 | 3.2 | 0.15 | 9.22 | 8.51 | 99 | 1004.5 |
| 20260501193024 | 17 | 357 | 1.6 | 3.2 | 0.20 | 9.22 | 8.51 | 99 | 1004.6 |
| 20260501192510 | 16 | 22 | 1.6 | 3.2 | 0.20 | 9.22 | 8.51 | 99 | 1004.5 |
| 20260501192010 | 16 | 67 | 1.6 | 3.2 | 0.23 | 9.22 | 8.51 | 99 | 1004.5 |
| 20260501191510 | 16 | 0 | 1.6 | 3.2 | 0.23 | 9.22 | 8.51 | 99 | 1004.4 |
| 20260501190955 | 16 | 109 | 0.0 | 3.2 | 0.23 | 9.22 | 8.48 | 99 | 1004.4 |
| 20260501190454 | 16 | 122 | 0.0 | 3.2 | 0.28 | 9.22 | 8.48 | 99 | 1005.0 |
| 20260501185955 | 16 | 0 | 1.6 | 3.2 | 0.28 | 9.22 | 8.48 | 99 | 1004.9 |
| 20260501185456 | 16 | 103 | 1.6 | 3.2 | 0.25 | 9.19 | 8.46 | 99 | 1004.7 |
| 20260501184942 | 16 | 310 | 1.6 | 3.2 | 0.25 | 9.17 | 8.46 | 99 | 1004.6 |
| 20260501184442 | 16 | 49 | 1.6 | 3.2 | 0.28 | 9.17 | 8.43 | 99 | 1004.4 |
| 20260501183940 | 16 | 78 | 1.6 | 3.2 | 0.28 | 9.14 | 8.41 | 99 | 1004.5 |
| 20260501183440 | 16 | 333 | 0.0 | 3.2 | 0.23 | 9.07 | 8.36 | 99 | 1004.6 |
| 20260501182939 | 16 | 0 | 1.6 | 9.7 | 0.18 | 9.02 | 8.31 | 99 | 1004.8 |
| 20260501182437 | 16 | 325 | 1.6 | 9.7 | 0.18 | 9.02 | 8.28 | 99 | 1004.2 |
| 20260501181933 | 16 | 3 | 1.6 | 3.2 | 0.20 | 8.99 | 8.28 | 99 | 1003.3 |
| 20260501181427 | 16 | 111 | 3.2 | 9.7 | 0.23 | 8.99 | 8.28 | 99 | 1003.3 |
| 20260501180926 | 16 | 340 | 3.2 | 14.5 | 0.20 | 8.99 | 8.26 | 99 | 1002.7 |
| 20260501180427 | 16 | 125 | 3.2 | 14.5 | 0.18 | 8.94 | 8.23 | 99 | 1003.2 |
| 20260501175925 | 16 | 311 | 1.6 | 4.8 | 0.18 | 8.94 | 8.23 | 99 | 1003.5 |
| 20260501175426 | 16 | 3 | 1.6 | 4.8 | 0.18 | 8.94 | 8.20 | 99 | 1004.3 |
| 20260501174925 | 16 | 90 | 1.6 | 4.8 | 0.15 | 8.92 | 8.18 | 99 | 1004.8 |
| 20260501174426 | 16 | 0 | 1.6 | 4.8 | 0.15 | 8.89 | 8.15 | 99 | 1004.8 |
| 20260501173924 | 16 | 85 | 3.2 | 4.8 | 0.18 | 8.86 | 8.13 | 99 | 1005.0 |
| 20260501173426 | 16 | 37 | 1.6 | 4.8 | 0.23 | 8.84 | 8.13 | 99 | 1005.2 |
| 20260501172925 | 16 | 89 | 1.6 | 6.4 | 0.23 | 8.84 | 8.13 | 99 | 1005.4 |
| 20260501172426 | 16 | 0 | 1.6 | 6.4 | 0.25 | 8.84 | 8.10 | 99 | 1005.5 |